• Join FlightAware (Why Join?)
  • Login
  • US Flag 
05:07AM EDT


 

Airport Tracker/Info


-or-


 

Live Flight TrackerFlight Track Log ✈ GTX137 ✈ 13-May-2014 ✈ KHOU - KADS

Flight Track Log - Related Links

Times and Time Zones

All times are in EDT time to prevent confusion due to time zone crossing. See the GTX137 flight status page for this flight to view local times or setup timezone preferences in your user account.

Time Position Orientation Groundspeed Altitude Reporting Facility
EDT Latitude Longitude Course Direction KTS MPH feet Rate Location/Type
09:06PM 29.6586 -95.2911 309° West 102 117 500  Level Houston Center
09:08PM 29.6811 -95.3236 309° West 101 116 1,300 540 Climbing Houston Center
09:09PM 29.7019 -95.3492 313° West 103 119 1,900 540 Climbing Houston Center
09:10PM 29.7261 -95.3839 309° West 119 137 2,500 480 Climbing Houston Center
09:11PM 29.7511 -95.4119 316° Northwest 116 133 2,900 240 Climbing Houston Center
09:12PM 29.7772 -95.4453 312° West 128 147 3,000  Climbing Houston Center
09:13PM 29.8067 -95.4850 311° West 155 178 2,900 -60 Descending Houston Center
09:14PM 29.8369 -95.5189 316° Northwest 152 175 2,900  Level Houston Center
09:15PM 29.8681 -95.5517 318° Northwest 153 176 2,900 240 Level Houston Center
09:16PM 29.9044 -95.5569 353° North 140 161 3,500 480 Climbing Houston Center
09:17PM 29.9394 -95.5647 349° North 128 147 4,000 420 Climbing Houston Center
09:18PM 29.9750 -95.5722 350° North 129 148 4,400 420 Climbing Houston Center
09:19PM 30.0197 -95.5789 353° North 130 150 4,900 240 Climbing Houston Center
09:20PM 30.0617 -95.5931 344° North 154 177 4,900  Level Houston Center
09:21PM 30.1014 -95.6117 338° Northwest 173 199 4,900 360 Level Houston Center
09:22PM 30.1472 -95.6303 341° North 143 165 5,700 600 Climbing Houston Center
09:23PM 30.1817 -95.6408 345° North 145 167 6,200 660 Climbing Houston Center
09:24PM 30.2253 -95.6597 339° North 149 171 7,100 660 Climbing Houston Center
09:25PM 30.2642 -95.6722 344° North 148 170 7,600 360 Climbing Houston Center
09:26PM 30.3014 -95.6864 342° North 148 170 7,900 120 Climbing Houston Center
09:27PM 30.3444 -95.7081 337° Northwest 163 188 7,900  Level Houston Center
09:28PM 30.4022 -95.7247 346° North 175 201 7,900  Level Houston Center
09:29PM 30.4508 -95.7406 344° North 178 205 8,000  Climbing Houston Center
09:30PM 30.4986 -95.7567 344° North 181 208 8,000 -60 Level Houston Center
09:31PM 30.5458 -95.7739 343° North 180 207 7,900 -60 Descending Houston Center
09:32PM 30.5944 -95.7903 344° North 180 207 7,900  Level Houston Center
09:33PM 30.6433 -95.8025 348° North 180 207 8,000  Climbing Houston Center
09:34PM 30.6992 -95.8222 343° North 182 209 7,900  Descending Houston Center
09:35PM 30.7467 -95.8408 341° North 182 209 8,000  Climbing Houston Center
09:37PM 30.7947 -95.8544 346° North 182 209 8,000 -60 Level Houston Center
09:38PM 30.8422 -95.8753 339° North 181 208 7,900  Descending Houston Center
09:39PM 30.8906 -95.8894 346° North 180 207 8,000  Climbing Houston Center
09:40PM 30.9381 -95.9069 342° North 180 207 8,000  Level Houston Center
09:41PM 30.9847 -95.9236 343° North 179 206 8,000 -60 Level Houston Center
09:42PM 31.0317 -95.9406 343° North 178 205 7,900  Descending Houston Center
09:43PM 31.0783 -95.9572 343° North 177 204 8,000  Climbing Houston Center
09:44PM 31.1258 -95.9744 343° North 177 204 8,000  Level Houston Center
09:45PM 31.1825 -95.9872 349° North 176 203 8,000  Level Houston Center
09:46PM 31.2306 -95.9947 352° North 175 201 8,000  Level Houston Center
09:47PM 31.2778 -96.0061 348° North 175 201 8,000  Level Houston Center
09:48PM 31.3250 -96.0203 346° North 175 201 8,000  Level Houston Center
09:49PM 31.3733 -96.0281 352° North 175 201 8,000  Level Houston Center
09:49PM 31.4056 -96.0339 351° North 172 198 8,000  Level Fort Worth Center
09:51PM 31.4514 -96.0506 343° North 173 199 8,000  Level Fort Worth Center
09:52PM 31.4981 -96.0608 349° North 174 200 8,000  Level Fort Worth Center
09:53PM 31.5456 -96.0750 346° North 174 200 8,000  Level Fort Worth Center
09:54PM 31.6031 -96.0853 351° North 174 200 8,000  Level Fort Worth Center
09:55PM 31.6503 -96.0981 347° North 175 201 8,000  Level Fort Worth Center
09:56PM 31.6981 -96.1111 347° North 175 201 8,000  Level Fort Worth Center
09:57PM 31.7458 -96.1197 351° North 176 203 8,000  Level Fort Worth Center
09:58PM 31.7928 -96.1311 348° North 175 201 8,000  Level Fort Worth Center
09:59PM 31.8389 -96.1408 350° North 171 197 8,000  Level Fort Worth Center
10:00PM 31.8867 -96.1533 347° North 173 199 8,000  Level Fort Worth Center
10:01PM 31.9339 -96.1639 349° North 174 200 8,000  Level Fort Worth Center
10:02PM 31.9847 -96.1764 348° North 175 201 8,000  Level Fort Worth Center
10:03PM 32.0322 -96.1881 348° North 176 203 8,000 -60 Level Fort Worth Center
10:04PM 32.0789 -96.2022 346° North 176 203 7,900 -60 Descending Fort Worth Center
10:05PM 32.1378 -96.2139 350° North 176 203 7,900 -60 Level Fort Worth Center
10:06PM 32.1878 -96.2253 349° North 179 206 7,800 -300 Descending Fort Worth Center
10:07PM 32.2375 -96.2522 335° Northwest 190 219 7,300 -480 Descending Fort Worth Center
10:08PM 32.2856 -96.2833 331° Northwest 195 224 6,900 -240 Descending Fort Worth Center
10:09PM 32.3339 -96.3136 332° Northwest 182 209 6,900  Level Fort Worth Center
10:10PM 32.3725 -96.3475 323° Northwest 174 200 6,900 -120 Level Fort Worth Center
10:11PM 32.4075 -96.3869 316° Northwest 174 200 6,700 -360 Descending Fort Worth Center
10:12PM 32.4456 -96.4297 317° Northwest 187 215 6,200 -600 Descending Fort Worth Center
10:13PM 32.4881 -96.4725 320° Northwest 187 215 5,500 -600 Descending Fort Worth Center
10:14PM 32.5278 -96.5094 322° Northwest 184 212 5,000 -600 Descending Fort Worth Center
10:15PM 32.5661 -96.5433 323° Northwest 176 203 4,300 -600 Descending Fort Worth Center
10:16PM 32.6022 -96.5753 323° Northwest 164 189 3,800 -540 Descending Fort Worth Center
10:17PM 32.6375 -96.6086 321° Northwest 152 175 3,300 -480 Descending Fort Worth Center
10:18PM 32.6711 -96.6414 321° Northwest 156 180 2,900 -240 Descending Fort Worth Center
10:19PM 32.7039 -96.6708 323° Northwest 149 171 2,900  Level Fort Worth Center
10:20PM 32.7358 -96.6992 323° Northwest 146 168 2,900 -60 Level Fort Worth Center
10:21PM 32.7686 -96.7317 320° Northwest 145 167 2,800 -300 Descending Fort Worth Center
10:22PM 32.8017 -96.7578 326° Northwest 144 166 2,400 -360 Descending Fort Worth Center
10:23PM 32.8364 -96.7789 333° Northwest 143 165 2,100 -300 Descending Fort Worth Center
10:24PM 32.8686 -96.7933 339° North 127 146 1,900 -180 Descending Fort Worth Center
10:25PM 32.8994 -96.8064 340° North 113 130 1,800 -360 Descending Fort Worth Center
10:26PM 32.9264 -96.8183 340° North 107 123 1,200 -540 Descending Fort Worth Center
10:27PM 32.9517 -96.8292 340° North 100 115 800 -300 Descending Fort Worth Center
10:28PM 32.9753 -96.8369 345° North 99 114 700 -120 Descending Fort Worth Center
10:30PM 32.9667 -96.8333 North  Level FlightAware Approximate
10:37PM 32.9686 -96.8364 North  Level Estimated